createdAt,value
2022-10-31T00:01:16.979Z,24.38
2022-10-31T00:03:43.802Z,18.60
2022-10-31T00:06:10.835Z,18.38
2022-10-31T00:08:37.817Z,22.08
2022-10-31T00:11:04.776Z,18.58
2022-10-31T00:13:32.513Z,17.88
2022-10-31T00:15:59.265Z,14.73
2022-10-31T00:18:26.149Z,26.00
2022-10-31T00:21:03.422Z,23.13
2022-10-31T00:23:30.525Z,17.23
2022-10-31T00:26:05.935Z,16.08
2022-10-31T00:28:33.161Z,16.30
2022-10-31T00:31:10.562Z,22.00
2022-10-31T00:33:39.291Z,18.10
2022-10-31T00:36:07.457Z,19.88
2022-10-31T00:38:34.444Z,21.55
2022-10-31T00:41:01.262Z,18.08
2022-10-31T00:43:28.005Z,21.02
2022-10-31T00:45:54.751Z,19.10
2022-10-31T00:48:21.538Z,19.05
2022-10-31T00:50:48.275Z,19.10
2022-10-31T00:53:15.026Z,19.90
2022-10-31T00:55:41.765Z,20.00
2022-10-31T00:58:08.660Z,19.15
2022-10-31T01:00:35.410Z,19.88
2022-10-31T01:03:02.601Z,18.33
2022-10-31T01:05:29.594Z,16.02
2022-10-31T01:07:56.472Z,18.58
2022-10-31T01:10:23.230Z,22.10
2022-10-31T01:12:50.710Z,19.05
2022-10-31T01:15:22.957Z,21.50
2022-10-31T01:17:50.551Z,17.85
2022-10-31T01:20:18.191Z,16.88
2022-10-31T01:22:45.153Z,20.00
2022-10-31T01:25:12.226Z,17.70
2022-10-31T01:27:39.038Z,23.13
2022-10-31T01:30:06.792Z,16.55
2022-10-31T01:32:33.658Z,17.88
2022-10-31T01:35:00.402Z,23.30
2022-10-31T01:37:27.235Z,21.60
2022-10-31T01:39:54.006Z,18.52
2022-10-31T01:42:23.085Z,22.35
2022-10-31T01:45:10.916Z,22.92
2022-10-31T01:47:46.426Z,27.65
2022-10-31T01:50:24.394Z,25.08
2022-10-31T01:52:53.086Z,25.58
2022-10-31T01:55:30.442Z,21.33
2022-10-31T01:58:03.511Z,28.98
2022-10-31T02:00:30.830Z,25.90
2022-10-31T02:02:58.000Z,28.73
2022-10-31T02:05:28.943Z,29.25
2022-10-31T02:08:00.735Z,23.27
2022-10-31T02:10:28.267Z,22.02
2022-10-31T02:12:58.528Z,26.15
2022-10-31T02:15:25.449Z,31.33
2022-10-31T02:17:53.025Z,22.55
2022-10-31T02:20:23.591Z,28.13
2022-10-31T02:23:09.146Z,35.00
2022-10-31T02:25:57.094Z,30.10
2022-10-31T02:28:41.879Z,32.85
2022-10-31T02:31:24.754Z,35.05
2022-10-31T02:34:19.500Z,34.33
2022-10-31T02:37:11.840Z,37.53
2022-10-31T02:39:45.440Z,30.48
2022-10-31T02:42:27.232Z,33.80
2022-10-31T02:45:13.295Z,35.97
2022-10-31T02:47:42.294Z,37.60
2022-10-31T02:50:11.876Z,32.13
2022-10-31T02:52:38.658Z,35.45
2022-10-31T02:55:35.247Z,34.17
2022-10-31T02:58:15.212Z,33.95
2022-10-31T03:01:05.554Z,43.28
2022-10-31T03:03:32.402Z,36.45
2022-10-31T03:06:24.317Z,36.53
2022-10-31T03:09:31.532Z,36.03
2022-10-31T03:12:04.099Z,32.03
2022-10-31T03:14:54.990Z,33.40
2022-10-31T03:17:43.916Z,30.42
2022-10-31T03:20:11.703Z,30.45
2022-10-31T03:22:41.801Z,42.33
2022-10-31T03:25:09.934Z,32.42
2022-10-31T03:27:38.847Z,33.13
2022-10-31T03:30:08.784Z,36.42
2022-10-31T03:33:07.458Z,25.25
2022-10-31T03:35:36.058Z,33.80
2022-10-31T03:38:06.957Z,34.10
2022-10-31T03:40:38.757Z,25.58
2022-10-31T03:43:10.528Z,29.88
2022-10-31T03:45:46.040Z,36.75
2022-10-31T03:48:14.778Z,32.38
2022-10-31T03:51:06.302Z,28.98
2022-10-31T03:53:33.099Z,30.92
2022-10-31T03:56:26.970Z,26.73
2022-10-31T03:59:05.628Z,31.88
2022-10-31T04:01:38.249Z,29.98
2022-10-31T04:04:07.200Z,31.95
2022-10-31T04:06:37.576Z,35.20
2022-10-31T04:09:07.533Z,26.27
2022-10-31T04:11:40.229Z,29.35
2022-10-31T04:14:08.005Z,30.98
2022-10-31T04:16:34.943Z,35.03
2022-10-31T04:19:01.663Z,27.55
2022-10-31T04:21:30.373Z,34.67
2022-10-31T04:23:57.868Z,27.52
2022-10-31T04:26:24.657Z,33.25
2022-10-31T04:28:51.404Z,26.63
2022-10-31T04:31:18.463Z,29.92
2022-10-31T04:33:45.213Z,26.83
2022-10-31T04:36:12.054Z,26.15
2022-10-31T04:38:38.788Z,26.27
2022-10-31T04:41:05.722Z,27.10
2022-10-31T04:43:32.467Z,23.35
2022-10-31T04:45:59.236Z,23.40
2022-10-31T04:48:26.369Z,24.55
2022-10-31T04:50:53.267Z,26.85
2022-10-31T04:53:20.182Z,25.33
2022-10-31T04:55:47.014Z,28.00
2022-10-31T04:58:13.817Z,25.52
2022-10-31T05:00:40.843Z,23.77
2022-10-31T05:03:07.729Z,29.15
2022-10-31T05:05:34.525Z,27.90
2022-10-31T05:08:01.465Z,29.58
2022-10-31T05:10:30.304Z,28.88
2022-10-31T05:13:00.064Z,24.88
2022-10-31T05:15:28.579Z,38.25
2022-10-31T05:17:55.956Z,39.42
2022-10-31T05:20:26.157Z,41.60
2022-10-31T05:22:54.740Z,28.98
2022-10-31T05:25:23.605Z,23.55
2022-10-31T05:27:52.066Z,52.00
2022-10-31T05:30:25.592Z,39.42
2022-10-31T05:32:52.730Z,48.80
2022-10-31T05:35:24.937Z,31.35
2022-10-31T05:37:51.759Z,26.50
2022-10-31T05:40:20.272Z,26.83
2022-10-31T05:42:47.719Z,36.33
2022-10-31T05:45:16.975Z,46.35
2022-10-31T05:47:50.810Z,42.63
2022-10-31T05:50:17.636Z,62.95
2022-10-31T05:52:44.370Z,96.53
2022-10-31T05:55:11.225Z,58.08
2022-10-31T05:57:38.144Z,79.00
2022-10-31T06:00:06.553Z,89.63
2022-10-31T06:02:35.510Z,83.88
2022-10-31T06:05:03.436Z,56.60
2022-10-31T06:07:36.904Z,68.63
2022-10-31T06:10:06.710Z,64.40
2022-10-31T06:12:38.431Z,83.00
2022-10-31T06:15:06.749Z,71.70
2022-10-31T06:17:35.171Z,83.20
2022-10-31T06:20:02.365Z,106.97
2022-10-31T06:22:29.529Z,126.13
2022-10-31T06:24:56.314Z,112.95
2022-10-31T06:27:23.582Z,105.22
2022-10-31T06:29:50.401Z,93.95
2022-10-31T06:32:17.343Z,73.82
2022-10-31T06:34:44.528Z,59.60
2022-10-31T06:37:12.976Z,80.57
2022-10-31T06:39:39.775Z,72.13
2022-10-31T06:42:06.813Z,88.85
2022-10-31T06:44:33.790Z,53.75
2022-10-31T06:47:00.922Z,68.05
2022-10-31T06:49:27.703Z,93.90
2022-10-31T06:51:54.568Z,63.88
2022-10-31T06:54:22.387Z,87.90
2022-10-31T06:56:50.229Z,72.25
2022-10-31T06:59:17.065Z,92.60
2022-10-31T07:01:44.197Z,58.92
2022-10-31T07:04:12.111Z,71.75
2022-10-31T07:06:39.136Z,62.95
2022-10-31T07:09:06.524Z,56.97
2022-10-31T07:11:33.381Z,48.53
2022-10-31T07:14:00.134Z,62.60
2022-10-31T07:16:26.944Z,52.05
2022-10-31T07:18:53.721Z,58.65
2022-10-31T07:21:20.813Z,46.17
2022-10-31T07:23:50.856Z,52.20
2022-10-31T07:26:17.788Z,68.22
2022-10-31T07:28:44.674Z,57.67
2022-10-31T07:31:11.502Z,46.80
2022-10-31T07:33:38.307Z,52.40
2022-10-31T07:36:05.316Z,53.47
2022-10-31T07:38:32.066Z,53.47
2022-10-31T07:40:58.818Z,51.58
2022-10-31T07:43:25.586Z,47.58
2022-10-31T07:45:55.387Z,56.63
2022-10-31T07:48:22.209Z,56.28
2022-10-31T07:50:49.195Z,50.80
2022-10-31T07:53:16.466Z,60.13
2022-10-31T07:55:44.033Z,53.58
2022-10-31T07:58:16.518Z,59.95
2022-10-31T08:03:13.587Z,60.92
2022-10-31T08:05:42.133Z,61.00
2022-10-31T08:08:09.617Z,69.82
2022-10-31T08:10:37.387Z,63.75
2022-10-31T08:13:15.328Z,67.50
2022-10-31T08:15:46.925Z,65.03
2022-10-31T08:18:15.384Z,71.35
2022-10-31T08:20:43.557Z,70.95
2022-10-31T08:23:11.944Z,67.53
2022-10-31T08:25:39.911Z,70.57
2022-10-31T08:28:07.979Z,73.70
2022-10-31T08:30:36.907Z,72.20
2022-10-31T08:33:18.397Z,70.82
2022-10-31T08:35:45.881Z,86.32
2022-10-31T08:38:14.100Z,72.18
2022-10-31T08:40:41.284Z,74.65
2022-10-31T08:43:13.906Z,62.60
2022-10-31T08:45:41.502Z,82.25
2022-10-31T08:48:14.622Z,72.07
2022-10-31T08:50:42.495Z,71.97
2022-10-31T08:53:14.203Z,82.13
2022-10-31T08:55:44.300Z,79.03
2022-10-31T08:58:19.453Z,74.78
2022-10-31T09:00:50.801Z,73.43
2022-10-31T09:03:26.874Z,79.72
2022-10-31T09:06:00.851Z,74.88
2022-10-31T09:08:33.031Z,71.18
2022-10-31T09:11:03.056Z,66.25
2022-10-31T09:13:31.113Z,68.22
2022-10-31T09:16:01.769Z,69.07
2022-10-31T09:18:30.664Z,71.53
2022-10-31T09:21:04.802Z,70.20
2022-10-31T09:23:33.405Z,64.95
2022-10-31T09:26:02.853Z,57.40
2022-10-31T09:28:29.713Z,51.97
2022-10-31T09:30:56.909Z,54.60
2022-10-31T09:33:24.159Z,52.10
2022-10-31T09:35:51.652Z,48.63
2022-10-31T09:38:21.563Z,52.15
2022-10-31T09:41:13.600Z,47.90
2022-10-31T09:44:00.577Z,45.05
2022-10-31T09:47:06.476Z,48.10
2022-10-31T09:50:03.797Z,39.92
2022-10-31T09:52:37.753Z,40.28
2022-10-31T09:55:42.828Z,43.15
2022-10-31T09:58:21.767Z,42.38
2022-10-31T10:00:50.192Z,37.38
2022-10-31T10:03:39.701Z,39.53
2022-10-31T10:06:28.688Z,38.22
2022-10-31T10:08:57.038Z,36.25
2022-10-31T10:11:56.452Z,38.10
2022-10-31T10:14:47.755Z,36.35
2022-10-31T10:17:42.933Z,38.00
2022-10-31T10:20:54.032Z,42.67
2022-10-31T10:23:39.747Z,37.05
2022-10-31T10:29:27.995Z,38.72
2022-10-31T10:31:56.209Z,37.92
2022-10-31T10:34:35.690Z,45.70
2022-10-31T10:37:41.069Z,40.78
2022-10-31T10:40:27.456Z,38.88
2022-10-31T10:43:23.125Z,48.30
2022-10-31T10:46:11.877Z,37.47
2022-10-31T10:49:05.905Z,47.25
2022-10-31T10:54:54.261Z,37.63
2022-10-31T10:57:23.858Z,38.17
2022-10-31T10:59:52.256Z,44.30
2022-10-31T11:02:26.379Z,38.08
2022-10-31T11:04:59.039Z,46.42
2022-10-31T11:07:26.259Z,39.78
2022-10-31T11:10:05.275Z,47.67
2022-10-31T11:12:34.829Z,46.00
2022-10-31T11:15:09.160Z,43.80
2022-10-31T11:17:41.142Z,50.25
2022-10-31T11:20:32.368Z,39.90
2022-10-31T11:23:19.523Z,39.90
2022-10-31T11:25:59.158Z,37.90
2022-10-31T11:28:27.660Z,39.83
2022-10-31T11:31:00.882Z,38.88
2022-10-31T11:33:39.719Z,50.50
2022-10-31T11:36:22.535Z,39.20
2022-10-31T11:38:50.238Z,42.13
2022-10-31T11:41:26.935Z,45.03
2022-10-31T11:43:56.465Z,38.50
2022-10-31T11:46:35.806Z,38.53
2022-10-31T11:49:04.521Z,44.67
2022-10-31T11:51:34.997Z,34.75
2022-10-31T11:54:04.279Z,38.47
2022-10-31T11:56:42.390Z,37.08
2022-10-31T11:59:32.150Z,32.55
2022-10-31T12:02:02.790Z,32.00
2022-10-31T12:04:37.936Z,32.90
2022-10-31T12:07:04.773Z,32.75
2022-10-31T12:09:35.408Z,33.03
2022-10-31T12:12:42.666Z,31.85
2022-10-31T12:15:27.889Z,31.65
2022-10-31T12:18:23.624Z,36.08
2022-10-31T12:21:47.835Z,33.75
2022-10-31T12:24:19.317Z,27.50
2022-10-31T12:27:04.138Z,33.63
2022-10-31T12:29:49.014Z,26.52
2022-10-31T12:32:31.714Z,34.25
2022-10-31T12:35:20.791Z,35.78
2022-10-31T12:37:59.796Z,28.80
2022-10-31T12:40:38.884Z,29.30
2022-10-31T12:43:05.679Z,25.52
2022-10-31T12:45:41.388Z,27.30
2022-10-31T12:48:08.142Z,28.85
2022-10-31T12:50:37.628Z,26.02
2022-10-31T12:53:16.833Z,32.85
2022-10-31T12:55:56.485Z,28.15
2022-10-31T12:58:26.532Z,27.23
2022-10-31T13:01:15.141Z,29.60
2022-10-31T13:03:52.378Z,27.50
2022-10-31T13:06:33.190Z,33.05
2022-10-31T13:09:06.749Z,32.22
2022-10-31T13:11:46.218Z,30.23
2022-10-31T13:14:18.872Z,25.05
2022-10-31T13:16:48.651Z,24.23
2022-10-31T13:19:42.169Z,28.10
2022-10-31T13:22:23.791Z,24.73
2022-10-31T13:25:09.587Z,24.10
2022-10-31T13:27:39.341Z,23.33
2022-10-31T13:30:18.988Z,24.20
2022-10-31T13:33:10.751Z,28.65
2022-10-31T13:35:57.784Z,27.52
2022-10-31T13:38:35.399Z,22.80
2022-10-31T13:41:05.081Z,28.60
2022-10-31T13:44:03.020Z,25.75
2022-10-31T13:49:48.367Z,25.45
2022-10-31T13:52:25.928Z,25.15
2022-10-31T13:54:57.285Z,24.45
2022-10-31T13:57:35.939Z,26.13
2022-10-31T14:00:20.820Z,21.85
2022-10-31T14:02:52.437Z,24.73
2022-10-31T14:05:30.543Z,23.57
2022-10-31T14:08:00.452Z,25.05
2022-10-31T14:10:30.337Z,22.65
2022-10-31T14:13:17.361Z,25.60
2022-10-31T14:16:04.235Z,22.63
2022-10-31T14:18:40.115Z,30.10
2022-10-31T14:21:40.015Z,24.25
2022-10-31T14:24:37.700Z,20.90
2022-10-31T14:27:27.519Z,22.88
2022-10-31T14:29:54.501Z,20.58
2022-10-31T14:32:25.223Z,26.83
2022-10-31T14:34:51.939Z,24.98
2022-10-31T14:37:39.427Z,27.92
2022-10-31T14:40:55.819Z,23.05
2022-10-31T14:43:51.093Z,28.63
2022-10-31T14:46:34.929Z,27.92
2022-10-31T14:49:25.961Z,23.23
2022-10-31T14:51:53.448Z,23.45
2022-10-31T14:54:35.340Z,24.55
2022-10-31T14:57:24.643Z,25.95
2022-10-31T14:59:59.274Z,22.75
2022-10-31T15:02:58.723Z,21.52
2022-10-31T15:05:27.936Z,25.30
2022-10-31T15:07:59.701Z,34.60
2022-10-31T15:10:33.222Z,27.20
2022-10-31T15:13:20.456Z,24.88
2022-10-31T15:15:52.052Z,22.83
2022-10-31T15:18:22.839Z,24.27
2022-10-31T15:20:52.467Z,26.92
2022-10-31T15:23:27.703Z,25.45
2022-10-31T15:26:06.283Z,21.40
2022-10-31T15:28:33.408Z,24.73
2022-10-31T15:31:02.224Z,23.48
2022-10-31T15:33:45.253Z,28.65
2022-10-31T15:36:27.700Z,21.98
2022-10-31T15:38:59.396Z,25.63
2022-10-31T15:41:54.754Z,23.33
2022-10-31T15:44:31.490Z,28.08
2022-10-31T15:47:01.408Z,27.80
2022-10-31T15:49:33.668Z,25.83
2022-10-31T15:52:25.729Z,27.05
2022-10-31T15:55:01.217Z,24.90
2022-10-31T15:57:28.561Z,24.45
2022-10-31T15:59:56.042Z,25.92
2022-10-31T16:02:25.882Z,24.42
2022-10-31T16:05:04.097Z,22.52
2022-10-31T16:07:31.342Z,24.48
2022-10-31T16:10:03.496Z,27.55
2022-10-31T16:12:38.446Z,26.60
2022-10-31T16:15:07.785Z,28.13
2022-10-31T16:17:34.581Z,26.63
2022-10-31T16:20:04.863Z,28.45
2022-10-31T16:22:37.619Z,20.67
2022-10-31T16:25:17.810Z,22.55
2022-10-31T16:27:54.566Z,21.17
2022-10-31T16:30:32.626Z,26.95
2022-10-31T16:33:02.527Z,19.90
2022-10-31T16:35:35.626Z,20.85
2022-10-31T16:38:02.656Z,23.77
2022-10-31T16:40:29.700Z,24.70
2022-10-31T16:42:59.553Z,20.30
2022-10-31T16:45:29.300Z,21.00
2022-10-31T16:48:04.420Z,21.40
2022-10-31T16:50:31.397Z,18.15
2022-10-31T16:53:13.486Z,23.05
2022-10-31T16:56:24.006Z,20.30
2022-10-31T16:58:51.043Z,22.40
2022-10-31T17:01:18.274Z,23.38
2022-10-31T17:03:45.152Z,24.75
2022-10-31T17:06:13.650Z,21.08
2022-10-31T17:08:40.940Z,22.48
2022-10-31T17:11:15.242Z,26.65
2022-10-31T17:13:42.104Z,26.25
2022-10-31T17:16:08.957Z,24.17
2022-10-31T17:18:35.728Z,29.75
2022-10-31T17:21:04.423Z,25.77
2022-10-31T17:23:33.314Z,23.33
2022-10-31T17:26:00.550Z,29.33
2022-10-31T17:28:27.355Z,25.88
2022-10-31T17:30:59.211Z,30.13
2022-10-31T17:33:26.421Z,26.65
2022-10-31T17:35:53.328Z,26.65
2022-10-31T17:38:20.146Z,24.45
2022-10-31T17:43:18.932Z,29.57
2022-10-31T17:45:45.851Z,26.05
2022-10-31T17:48:13.195Z,32.97
2022-10-31T17:50:40.297Z,27.17
2022-10-31T17:53:07.169Z,26.10
2022-10-31T17:55:36.975Z,27.85
2022-10-31T17:58:05.308Z,27.23
2022-10-31T18:00:32.550Z,29.60
2022-10-31T18:02:59.877Z,35.10
2022-10-31T18:05:26.833Z,31.38
2022-10-31T18:07:53.669Z,30.90
2022-10-31T18:10:20.441Z,32.72
2022-10-31T18:12:48.821Z,36.92
2022-10-31T18:15:16.639Z,37.45
2022-10-31T18:17:43.705Z,40.60
2022-10-31T18:20:11.244Z,39.35
2022-10-31T18:22:38.042Z,43.90
2022-10-31T18:25:05.677Z,41.05
2022-10-31T18:27:32.571Z,42.42
2022-10-31T18:29:59.393Z,44.28
2022-10-31T18:32:27.370Z,46.80
2022-10-31T18:34:54.112Z,46.83
2022-10-31T18:37:20.874Z,49.13
2022-10-31T18:39:47.632Z,47.83
2022-10-31T18:42:14.465Z,54.03
2022-10-31T18:44:41.283Z,57.17
2022-10-31T18:47:08.049Z,57.58
2022-10-31T18:49:36.543Z,55.03
2022-10-31T18:52:04.702Z,60.63
2022-10-31T18:54:31.482Z,58.30
2022-10-31T18:56:58.275Z,53.13
2022-10-31T18:59:25.056Z,59.53
2022-10-31T19:01:51.953Z,59.13
2022-10-31T19:04:18.937Z,56.10
2022-10-31T19:06:45.734Z,57.33
2022-10-31T19:09:12.580Z,63.10
2022-10-31T19:11:39.956Z,63.88
2022-10-31T19:14:08.557Z,64.38
2022-10-31T19:16:35.697Z,63.78
2022-10-31T19:19:02.807Z,69.03
2022-10-31T19:21:32.228Z,64.70
2022-10-31T19:24:00.466Z,65.75
2022-10-31T19:26:28.095Z,60.85
2022-10-31T19:28:56.286Z,70.95
2022-10-31T19:31:23.571Z,65.72
2022-10-31T19:33:50.720Z,65.75
2022-10-31T19:36:19.492Z,70.20
2022-10-31T19:38:49.300Z,77.32
2022-10-31T19:41:19.560Z,70.75
2022-10-31T19:43:46.682Z,66.72
2022-10-31T19:46:22.394Z,65.60
2022-10-31T19:48:55.260Z,69.32
2022-10-31T19:51:22.388Z,66.85
2022-10-31T19:53:52.528Z,66.07
2022-10-31T19:56:24.448Z,78.22
2022-10-31T19:58:51.254Z,72.97
2022-10-31T20:01:20.619Z,70.72
2022-10-31T20:03:48.861Z,78.63
2022-10-31T20:06:47.794Z,71.53
2022-10-31T20:09:15.295Z,70.72
2022-10-31T20:11:44.345Z,70.18
2022-10-31T20:14:13.822Z,79.45
2022-10-31T20:16:40.737Z,78.63
2022-10-31T20:19:07.503Z,72.80
2022-10-31T20:21:38.590Z,70.80
2022-10-31T20:24:08.396Z,78.78
2022-10-31T20:26:36.116Z,72.97
2022-10-31T20:29:03.824Z,81.63
2022-10-31T20:31:33.282Z,79.00
2022-10-31T20:34:00.568Z,85.50
2022-10-31T20:36:29.551Z,77.53
2022-10-31T20:38:56.585Z,79.80
2022-10-31T20:41:23.486Z,77.25
2022-10-31T20:43:50.497Z,77.93
2022-10-31T20:46:20.189Z,88.47
2022-10-31T20:48:47.018Z,81.40
2022-10-31T20:53:44.013Z,83.97
2022-10-31T20:56:16.801Z,83.93
2022-10-31T20:58:44.462Z,82.72
2022-10-31T21:01:18.069Z,84.30
2022-10-31T21:03:45.495Z,78.63
2022-10-31T21:06:12.946Z,83.00
2022-10-31T21:08:40.675Z,82.40
2022-10-31T21:11:11.313Z,81.85
2022-10-31T21:13:40.925Z,83.47
2022-10-31T21:16:13.579Z,82.57
2022-10-31T21:18:42.188Z,75.75
2022-10-31T21:21:14.430Z,83.85
2022-10-31T21:23:42.979Z,83.45
2022-10-31T21:26:16.252Z,87.18
2022-10-31T21:28:43.078Z,79.78
2022-10-31T21:31:12.812Z,82.30
2022-10-31T21:33:40.108Z,84.95
2022-10-31T21:36:07.494Z,80.05
2022-10-31T21:38:35.001Z,85.93
2022-10-31T21:41:04.875Z,81.95
2022-10-31T21:43:34.637Z,80.63
2022-10-31T21:46:29.500Z,86.82
2022-10-31T21:48:57.005Z,77.85
2022-10-31T21:51:29.218Z,79.43
2022-10-31T21:54:15.593Z,79.07
2022-10-31T21:56:43.151Z,74.45
2022-10-31T21:59:10.611Z,74.82
2022-10-31T22:01:37.532Z,77.03
2022-10-31T22:04:04.717Z,78.18
2022-10-31T22:06:31.754Z,72.90
2022-10-31T22:09:00.248Z,69.65
2022-10-31T22:11:30.197Z,79.57
2022-10-31T22:13:59.774Z,70.63
2022-10-31T22:16:29.120Z,69.80
2022-10-31T22:18:58.309Z,74.05
2022-10-31T22:21:27.825Z,74.85
2022-10-31T22:24:00.486Z,91.88
2022-10-31T22:26:30.260Z,81.53
2022-10-31T22:29:02.071Z,76.07
2022-10-31T22:31:30.258Z,76.97
2022-10-31T22:33:57.421Z,76.72
2022-10-31T22:36:26.654Z,77.57
2022-10-31T22:38:53.773Z,81.80
2022-10-31T22:41:26.550Z,72.70
2022-10-31T22:43:54.896Z,70.75
2022-10-31T22:46:24.991Z,78.15
2022-10-31T22:48:57.443Z,72.13
2022-10-31T22:53:52.331Z,71.07
2022-10-31T22:56:21.397Z,73.47
2022-10-31T22:58:48.798Z,72.07
2022-10-31T23:01:18.241Z,70.32
2022-10-31T23:03:46.170Z,66.32
2022-10-31T23:06:18.792Z,71.30
2022-10-31T23:08:46.232Z,70.25
2022-10-31T23:11:16.983Z,68.80
2022-10-31T23:14:03.791Z,72.78
2022-10-31T23:16:30.558Z,71.15
2022-10-31T23:18:57.655Z,71.43
2022-10-31T23:21:44.228Z,66.78
2022-10-31T23:24:11.996Z,70.47
2022-10-31T23:26:58.274Z,70.70
2022-10-31T23:29:25.073Z,68.47
2022-10-31T23:31:54.554Z,68.75
2022-10-31T23:34:22.241Z,74.90
2022-10-31T23:36:49.255Z,72.90
2022-10-31T23:39:18.800Z,66.05
2022-10-31T23:41:48.118Z,67.40
2022-10-31T23:44:14.965Z,66.68
2022-10-31T23:46:41.743Z,65.65
2022-10-31T23:49:08.785Z,65.65
2022-10-31T23:51:35.644Z,65.10
2022-10-31T23:54:02.509Z,68.95
2022-10-31T23:56:29.291Z,64.70
2022-10-31T23:58:56.158Z,66.80
